sensor_id;sensor_type;location;lat;lon;timestamp;temperature;humidity
10873;DHT22;34586;53.616;10.032;2023-05-07T00:02:03;9.70;99.90
10873;DHT22;34586;53.616;10.032;2023-05-07T00:04:29;9.70;99.90
10873;DHT22;34586;53.616;10.032;2023-05-07T00:07:01;9.70;99.90
10873;DHT22;34586;53.616;10.032;2023-05-07T00:09:26;9.70;99.90
10873;DHT22;34586;53.616;10.032;2023-05-07T00:11:52;9.60;99.90
10873;DHT22;34586;53.616;10.032;2023-05-07T00:14:18;9.70;99.90
10873;DHT22;34586;53.616;10.032;2023-05-07T00:16:43;9.70;99.90
10873;DHT22;34586;53.616;10.032;2023-05-07T00:19:09;9.70;99.90
10873;DHT22;34586;53.616;10.032;2023-05-07T00:21:35;9.60;99.90
10873;DHT22;34586;53.616;10.032;2023-05-07T00:24:01;9.60;99.90
10873;DHT22;34586;53.616;10.032;2023-05-07T00:26:26;9.70;99.90
10873;DHT22;34586;53.616;10.032;2023-05-07T00:28:52;9.70;99.90
10873;DHT22;34586;53.616;10.032;2023-05-07T00:31:18;9.70;99.90
10873;DHT22;34586;53.616;10.032;2023-05-07T00:33:43;9.70;99.90
10873;DHT22;34586;53.616;10.032;2023-05-07T00:36:10;9.70;99.90
10873;DHT22;34586;53.616;10.032;2023-05-07T00:38:36;9.70;99.90
10873;DHT22;34586;53.616;10.032;2023-05-07T00:41:02;9.60;99.90
10873;DHT22;34586;53.616;10.032;2023-05-07T00:43:28;9.70;99.90
10873;DHT22;34586;53.616;10.032;2023-05-07T00:45:54;9.80;99.90
10873;DHT22;34586;53.616;10.032;2023-05-07T00:48:20;9.60;99.90
10873;DHT22;34586;53.616;10.032;2023-05-07T00:50:45;9.60;99.90
10873;DHT22;34586;53.616;10.032;2023-05-07T00:53:12;9.60;99.90
10873;DHT22;34586;53.616;10.032;2023-05-07T00:55:38;9.60;99.90
10873;DHT22;34586;53.616;10.032;2023-05-07T00:58:04;9.60;99.90
10873;DHT22;34586;53.616;10.032;2023-05-07T01:00:31;9.70;99.90
10873;DHT22;34586;53.616;10.032;2023-05-07T01:02:57;9.60;99.90
10873;DHT22;34586;53.616;10.032;2023-05-07T01:05:24;9.70;99.90
10873;DHT22;34586;53.616;10.032;2023-05-07T01:07:52;9.70;99.90
10873;DHT22;34586;53.616;10.032;2023-05-07T01:10:19;9.70;99.90
10873;DHT22;34586;53.616;10.032;2023-05-07T01:12:45;9.70;99.90
10873;DHT22;34586;53.616;10.032;2023-05-07T01:15:12;9.60;99.90
10873;DHT22;34586;53.616;10.032;2023-05-07T01:17:40;9.60;99.90
10873;DHT22;34586;53.616;10.032;2023-05-07T01:20:07;9.60;99.90
10873;DHT22;34586;53.616;10.032;2023-05-07T01:22:37;9.60;99.90
10873;DHT22;34586;53.616;10.032;2023-05-07T01:25:04;9.60;99.90
10873;DHT22;34586;53.616;10.032;2023-05-07T01:27:32;9.60;99.90
10873;DHT22;34586;53.616;10.032;2023-05-07T01:29:59;9.60;99.90
10873;DHT22;34586;53.616;10.032;2023-05-07T01:32:48;9.70;99.90
10873;DHT22;34586;53.616;10.032;2023-05-07T01:35:19;9.60;99.90
10873;DHT22;34586;53.616;10.032;2023-05-07T01:37:46;9.60;99.90
10873;DHT22;34586;53.616;10.032;2023-05-07T01:40:14;9.50;99.90
10873;DHT22;34586;53.616;10.032;2023-05-07T01:42:42;9.50;99.90
10873;DHT22;34586;53.616;10.032;2023-05-07T01:45:08;9.60;99.90
10873;DHT22;34586;53.616;10.032;2023-05-07T01:47:35;9.60;99.90
10873;DHT22;34586;53.616;10.032;2023-05-07T01:50:01;9.60;99.90
10873;DHT22;34586;53.616;10.032;2023-05-07T01:52:27;9.50;99.90
10873;DHT22;34586;53.616;10.032;2023-05-07T01:54:53;9.60;99.90
10873;DHT22;34586;53.616;10.032;2023-05-07T01:57:19;9.50;99.90
10873;DHT22;34586;53.616;10.032;2023-05-07T01:59:44;9.60;99.90
10873;DHT22;34586;53.616;10.032;2023-05-07T02:02:10;9.50;99.90
10873;DHT22;34586;53.616;10.032;2023-05-07T02:04:35;9.60;99.90
10873;DHT22;34586;53.616;10.032;2023-05-07T02:07:02;9.60;99.90
10873;DHT22;34586;53.616;10.032;2023-05-07T02:09:27;9.60;99.90
10873;DHT22;34586;53.616;10.032;2023-05-07T02:11:53;9.60;99.90
10873;DHT22;34586;53.616;10.032;2023-05-07T02:14:18;9.60;99.90
10873;DHT22;34586;53.616;10.032;2023-05-07T02:16:45;9.70;99.90
10873;DHT22;34586;53.616;10.032;2023-05-07T02:19:12;9.60;99.90
10873;DHT22;34586;53.616;10.032;2023-05-07T02:21:37;9.60;99.90
10873;DHT22;34586;53.616;10.032;2023-05-07T02:24:03;9.50;99.90
10873;DHT22;34586;53.616;10.032;2023-05-07T02:26:29;9.50;99.90
10873;DHT22;34586;53.616;10.032;2023-05-07T02:28:54;9.50;99.90
10873;DHT22;34586;53.616;10.032;2023-05-07T02:31:20;9.60;99.90
10873;DHT22;34586;53.616;10.032;2023-05-07T02:33:46;9.60;99.90
10873;DHT22;34586;53.616;10.032;2023-05-07T02:36:12;9.60;99.90
10873;DHT22;34586;53.616;10.032;2023-05-07T02:38:38;9.60;99.90
10873;DHT22;34586;53.616;10.032;2023-05-07T02:41:03;9.60;99.90
10873;DHT22;34586;53.616;10.032;2023-05-07T02:43:29;9.50;99.90
10873;DHT22;34586;53.616;10.032;2023-05-07T02:46:05;9.50;99.90
10873;DHT22;34586;53.616;10.032;2023-05-07T02:48:31;9.50;99.90
10873;DHT22;34586;53.616;10.032;2023-05-07T02:50:58;9.60;99.90
10873;DHT22;34586;53.616;10.032;2023-05-07T02:53:24;9.60;99.90
10873;DHT22;34586;53.616;10.032;2023-05-07T02:55:53;9.60;99.90
10873;DHT22;34586;53.616;10.032;2023-05-07T02:58:19;9.60;99.90
10873;DHT22;34586;53.616;10.032;2023-05-07T03:00:45;9.60;99.90
10873;DHT22;34586;53.616;10.032;2023-05-07T03:03:12;9.60;99.90
10873;DHT22;34586;53.616;10.032;2023-05-07T03:05:38;9.60;99.90
10873;DHT22;34586;53.616;10.032;2023-05-07T03:08:05;9.60;99.90
10873;DHT22;34586;53.616;10.032;2023-05-07T03:10:30;9.50;99.90
10873;DHT22;34586;53.616;10.032;2023-05-07T03:12:56;9.50;99.90
10873;DHT22;34586;53.616;10.032;2023-05-07T03:15:21;9.50;99.90
10873;DHT22;34586;53.616;10.032;2023-05-07T03:17:50;9.60;99.90
10873;DHT22;34586;53.616;10.032;2023-05-07T03:20:16;9.50;99.90
10873;DHT22;34586;53.616;10.032;2023-05-07T03:22:43;9.40;99.90
10873;DHT22;34586;53.616;10.032;2023-05-07T03:25:08;9.40;99.90
10873;DHT22;34586;53.616;10.032;2023-05-07T03:27:34;9.40;99.90
10873;DHT22;34586;53.616;10.032;2023-05-07T03:30:00;9.50;99.90
10873;DHT22;34586;53.616;10.032;2023-05-07T03:32:26;9.40;99.90
10873;DHT22;34586;53.616;10.032;2023-05-07T03:34:52;9.40;99.90
10873;DHT22;34586;53.616;10.032;2023-05-07T03:37:18;9.40;99.90
10873;DHT22;34586;53.616;10.032;2023-05-07T03:39:43;9.50;99.90
10873;DHT22;34586;53.616;10.032;2023-05-07T03:42:10;9.40;99.90
10873;DHT22;34586;53.616;10.032;2023-05-07T03:44:36;9.50;99.90
10873;DHT22;34586;53.616;10.032;2023-05-07T03:47:02;9.50;99.90
10873;DHT22;34586;53.616;10.032;2023-05-07T03:49:28;9.50;99.90
10873;DHT22;34586;53.616;10.032;2023-05-07T03:51:54;9.50;99.90
10873;DHT22;34586;53.616;10.032;2023-05-07T03:54:20;9.60;99.90
10873;DHT22;34586;53.616;10.032;2023-05-07T03:56:45;9.50;99.90
10873;DHT22;34586;53.616;10.032;2023-05-07T03:59:12;9.60;99.90
10873;DHT22;34586;53.616;10.032;2023-05-07T04:01:38;9.60;99.90
10873;DHT22;34586;53.616;10.032;2023-05-07T04:04:04;9.60;99.90
10873;DHT22;34586;53.616;10.032;2023-05-07T04:06:30;9.60;99.90
10873;DHT22;34586;53.616;10.032;2023-05-07T04:08:57;9.60;99.90
10873;DHT22;34586;53.616;10.032;2023-05-07T04:11:23;9.60;99.90
10873;DHT22;34586;53.616;10.032;2023-05-07T04:13:49;9.70;99.90
10873;DHT22;34586;53.616;10.032;2023-05-07T04:16:14;9.60;99.90
10873;DHT22;34586;53.616;10.032;2023-05-07T04:18:42;9.60;99.90
10873;DHT22;34586;53.616;10.032;2023-05-07T04:21:18;9.60;99.90
10873;DHT22;34586;53.616;10.032;2023-05-07T04:23:47;9.60;99.90
10873;DHT22;34586;53.616;10.032;2023-05-07T04:26:12;9.60;99.90
10873;DHT22;34586;53.616;10.032;2023-05-07T04:28:38;9.60;99.90
10873;DHT22;34586;53.616;10.032;2023-05-07T04:31:06;9.60;99.90
10873;DHT22;34586;53.616;10.032;2023-05-07T04:33:32;9.70;99.90
10873;DHT22;34586;53.616;10.032;2023-05-07T04:36:01;9.60;99.90
10873;DHT22;34586;53.616;10.032;2023-05-07T04:38:29;9.60;99.90
10873;DHT22;34586;53.616;10.032;2023-05-07T04:40:55;9.70;99.90
10873;DHT22;34586;53.616;10.032;2023-05-07T04:43:21;9.70;99.90
10873;DHT22;34586;53.616;10.032;2023-05-07T04:45:47;9.70;99.90
10873;DHT22;34586;53.616;10.032;2023-05-07T04:48:12;9.50;99.90
10873;DHT22;34586;53.616;10.032;2023-05-07T04:50:41;9.60;99.90
10873;DHT22;34586;53.616;10.032;2023-05-07T04:53:07;9.60;99.90
10873;DHT22;34586;53.616;10.032;2023-05-07T04:55:32;9.60;99.90
10873;DHT22;34586;53.616;10.032;2023-05-07T04:57:58;9.70;99.90
10873;DHT22;34586;53.616;10.032;2023-05-07T05:00:23;9.60;99.90
10873;DHT22;34586;53.616;10.032;2023-05-07T05:02:50;9.70;99.90
10873;DHT22;34586;53.616;10.032;2023-05-07T05:05:16;9.70;99.90
10873;DHT22;34586;53.616;10.032;2023-05-07T05:07:41;9.70;99.90
10873;DHT22;34586;53.616;10.032;2023-05-07T05:10:07;9.70;99.90
10873;DHT22;34586;53.616;10.032;2023-05-07T05:12:33;9.70;99.90
10873;DHT22;34586;53.616;10.032;2023-05-07T05:14:58;9.80;99.90
10873;DHT22;34586;53.616;10.032;2023-05-07T05:17:24;9.90;99.90
10873;DHT22;34586;53.616;10.032;2023-05-07T05:19:49;9.70;99.90
10873;DHT22;34586;53.616;10.032;2023-05-07T05:22:16;9.80;99.90
10873;DHT22;34586;53.616;10.032;2023-05-07T05:24:41;9.70;99.90
10873;DHT22;34586;53.616;10.032;2023-05-07T05:27:07;9.80;99.90
10873;DHT22;34586;53.616;10.032;2023-05-07T05:29:33;9.90;99.90
10873;DHT22;34586;53.616;10.032;2023-05-07T05:32:00;9.90;99.90
10873;DHT22;34586;53.616;10.032;2023-05-07T05:34:26;9.90;99.90
10873;DHT22;34586;53.616;10.032;2023-05-07T05:36:51;9.90;99.90
10873;DHT22;34586;53.616;10.032;2023-05-07T05:39:17;9.90;99.90
10873;DHT22;34586;53.616;10.032;2023-05-07T05:41:43;9.90;99.90
10873;DHT22;34586;53.616;10.032;2023-05-07T05:44:08;9.90;99.90
10873;DHT22;34586;53.616;10.032;2023-05-07T05:46:34;9.90;99.90
10873;DHT22;34586;53.616;10.032;2023-05-07T05:49:00;10.00;99.90
10873;DHT22;34586;53.616;10.032;2023-05-07T05:51:26;10.10;99.90
10873;DHT22;34586;53.616;10.032;2023-05-07T05:53:51;10.20;99.90
10873;DHT22;34586;53.616;10.032;2023-05-07T05:56:17;10.10;99.90
10873;DHT22;34586;53.616;10.032;2023-05-07T05:58:44;10.20;99.90
10873;DHT22;34586;53.616;10.032;2023-05-07T06:01:09;10.20;99.90
10873;DHT22;34586;53.616;10.032;2023-05-07T06:03:36;10.20;99.90
10873;DHT22;34586;53.616;10.032;2023-05-07T06:06:02;10.20;99.90
10873;DHT22;34586;53.616;10.032;2023-05-07T06:08:31;10.30;99.90
10873;DHT22;34586;53.616;10.032;2023-05-07T06:10:58;10.40;99.90
10873;DHT22;34586;53.616;10.032;2023-05-07T06:13:25;10.30;99.90
10873;DHT22;34586;53.616;10.032;2023-05-07T06:15:50;10.20;99.90
10873;DHT22;34586;53.616;10.032;2023-05-07T06:18:16;10.20;99.90
10873;DHT22;34586;53.616;10.032;2023-05-07T06:20:41;10.30;99.90
10873;DHT22;34586;53.616;10.032;2023-05-07T06:23:07;10.30;99.90
10873;DHT22;34586;53.616;10.032;2023-05-07T06:25:33;10.20;99.90
10873;DHT22;34586;53.616;10.032;2023-05-07T06:27:58;10.10;99.90
10873;DHT22;34586;53.616;10.032;2023-05-07T06:30:25;10.30;99.90
10873;DHT22;34586;53.616;10.032;2023-05-07T06:32:52;10.20;99.90
10873;DHT22;34586;53.616;10.032;2023-05-07T06:35:17;10.20;99.90
10873;DHT22;34586;53.616;10.032;2023-05-07T06:37:45;10.20;99.90
10873;DHT22;34586;53.616;10.032;2023-05-07T06:40:10;10.30;99.90
10873;DHT22;34586;53.616;10.032;2023-05-07T06:42:36;10.20;99.90
10873;DHT22;34586;53.616;10.032;2023-05-07T06:45:03;10.20;99.90
10873;DHT22;34586;53.616;10.032;2023-05-07T06:47:29;10.30;99.90
10873;DHT22;34586;53.616;10.032;2023-05-07T06:49:54;10.20;99.90
10873;DHT22;34586;53.616;10.032;2023-05-07T06:52:22;10.30;99.90
10873;DHT22;34586;53.616;10.032;2023-05-07T06:54:48;10.30;99.90
10873;DHT22;34586;53.616;10.032;2023-05-07T06:57:14;10.40;99.90
10873;DHT22;34586;53.616;10.032;2023-05-07T06:59:40;10.40;99.90
10873;DHT22;34586;53.616;10.032;2023-05-07T07:02:06;10.50;99.90
10873;DHT22;34586;53.616;10.032;2023-05-07T07:04:31;10.50;95.90
10873;DHT22;34586;53.616;10.032;2023-05-07T07:06:57;10.50;99.90
10873;DHT22;34586;53.616;10.032;2023-05-07T07:09:24;10.60;99.90
10873;DHT22;34586;53.616;10.032;2023-05-07T07:11:49;10.60;91.40
10873;DHT22;34586;53.616;10.032;2023-05-07T07:14:15;10.70;93.60
10873;DHT22;34586;53.616;10.032;2023-05-07T07:16:40;10.80;93.20
10873;DHT22;34586;53.616;10.032;2023-05-07T07:19:06;10.80;90.80
10873;DHT22;34586;53.616;10.032;2023-05-07T07:21:32;10.80;88.80
10873;DHT22;34586;53.616;10.032;2023-05-07T07:23:57;10.80;38.70
10873;DHT22;34586;53.616;10.032;2023-05-07T07:26:23;10.90;54.40
10873;DHT22;34586;53.616;10.032;2023-05-07T07:28:48;10.90;50.60
10873;DHT22;34586;53.616;10.032;2023-05-07T07:31:14;11.00;1.00
10873;DHT22;34586;53.616;10.032;2023-05-07T07:33:40;11.00;1.00
10873;DHT22;34586;53.616;10.032;2023-05-07T07:36:06;11.00;1.00
10873;DHT22;34586;53.616;10.032;2023-05-07T07:38:32;11.00;2.80
10873;DHT22;34586;53.616;10.032;2023-05-07T07:40:58;11.10;5.60
10873;DHT22;34586;53.616;10.032;2023-05-07T07:43:25;11.00;32.10
10873;DHT22;34586;53.616;10.032;2023-05-07T07:45:51;11.10;1.00
10873;DHT22;34586;53.616;10.032;2023-05-07T07:48:16;11.30;1.00
10873;DHT22;34586;53.616;10.032;2023-05-07T07:50:44;11.30;1.00
10873;DHT22;34586;53.616;10.032;2023-05-07T07:53:10;11.30;1.00
10873;DHT22;34586;53.616;10.032;2023-05-07T07:55:40;11.40;1.00
10873;DHT22;34586;53.616;10.032;2023-05-07T07:58:06;11.30;1.00
10873;DHT22;34586;53.616;10.032;2023-05-07T08:00:31;11.30;1.00
10873;DHT22;34586;53.616;10.032;2023-05-07T08:02:58;11.30;1.00
10873;DHT22;34586;53.616;10.032;2023-05-07T08:05:24;11.40;1.00
10873;DHT22;34586;53.616;10.032;2023-05-07T08:07:50;11.60;1.00
10873;DHT22;34586;53.616;10.032;2023-05-07T08:10:19;11.50;1.00
10873;DHT22;34586;53.616;10.032;2023-05-07T08:12:49;11.50;1.00
10873;DHT22;34586;53.616;10.032;2023-05-07T08:15:15;11.60;1.00
10873;DHT22;34586;53.616;10.032;2023-05-07T08:17:43;11.70;1.00
10873;DHT22;34586;53.616;10.032;2023-05-07T08:20:09;11.80;1.00
10873;DHT22;34586;53.616;10.032;2023-05-07T08:22:35;11.60;1.00
10873;DHT22;34586;53.616;10.032;2023-05-07T08:25:01;11.70;1.00
10873;DHT22;34586;53.616;10.032;2023-05-07T08:27:27;11.70;1.00
10873;DHT22;34586;53.616;10.032;2023-05-07T08:29:53;11.80;1.00
10873;DHT22;34586;53.616;10.032;2023-05-07T08:32:20;11.90;1.00
10873;DHT22;34586;53.616;10.032;2023-05-07T08:34:46;12.00;1.00
10873;DHT22;34586;53.616;10.032;2023-05-07T08:37:12;12.00;1.00
10873;DHT22;34586;53.616;10.032;2023-05-07T08:39:38;12.00;1.00
10873;DHT22;34586;53.616;10.032;2023-05-07T08:42:04;12.00;1.00
10873;DHT22;34586;53.616;10.032;2023-05-07T08:44:33;12.00;99.90
10873;DHT22;34586;53.616;10.032;2023-05-07T08:47:01;11.80;1.00
10873;DHT22;34586;53.616;10.032;2023-05-07T08:49:29;11.70;1.00
10873;DHT22;34586;53.616;10.032;2023-05-07T08:51:54;11.70;1.00
10873;DHT22;34586;53.616;10.032;2023-05-07T08:54:21;11.60;1.00
10873;DHT22;34586;53.616;10.032;2023-05-07T08:56:47;11.70;1.00
10873;DHT22;34586;53.616;10.032;2023-05-07T08:59:13;11.70;1.00
10873;DHT22;34586;53.616;10.032;2023-05-07T09:01:39;11.70;99.90
10873;DHT22;34586;53.616;10.032;2023-05-07T09:04:05;11.70;1.00
10873;DHT22;34586;53.616;10.032;2023-05-07T09:06:32;11.70;99.90
10873;DHT22;34586;53.616;10.032;2023-05-07T09:08:58;11.80;1.00
10873;DHT22;34586;53.616;10.032;2023-05-07T09:11:26;12.10;1.00
10873;DHT22;34586;53.616;10.032;2023-05-07T09:13:56;12.10;99.90
10873;DHT22;34586;53.616;10.032;2023-05-07T09:16:24;12.20;99.90
10873;DHT22;34586;53.616;10.032;2023-05-07T09:18:54;12.30;1.00
10873;DHT22;34586;53.616;10.032;2023-05-07T09:21:20;12.40;99.90
10873;DHT22;34586;53.616;10.032;2023-05-07T09:23:53;12.20;99.90
10873;DHT22;34586;53.616;10.032;2023-05-07T09:26:21;12.20;1.00
10873;DHT22;34586;53.616;10.032;2023-05-07T09:28:47;12.10;99.90
10873;DHT22;34586;53.616;10.032;2023-05-07T09:31:13;12.20;99.90
10873;DHT22;34586;53.616;10.032;2023-05-07T09:33:39;12.30;99.90
10873;DHT22;34586;53.616;10.032;2023-05-07T09:36:05;12.40;99.90
10873;DHT22;34586;53.616;10.032;2023-05-07T09:38:33;12.60;1.00
10873;DHT22;34586;53.616;10.032;2023-05-07T09:41:07;12.60;1.00
10873;DHT22;34586;53.616;10.032;2023-05-07T09:43:38;12.90;1.00
10873;DHT22;34586;53.616;10.032;2023-05-07T09:46:12;13.00;99.90
10873;DHT22;34586;53.616;10.032;2023-05-07T09:48:41;13.00;1.00
10873;DHT22;34586;53.616;10.032;2023-05-07T09:53:47;13.20;99.90
10873;DHT22;34586;53.616;10.032;2023-05-07T09:56:14;13.50;99.90
10873;DHT22;34586;53.616;10.032;2023-05-07T09:58:41;13.50;99.90
10873;DHT22;34586;53.616;10.032;2023-05-07T10:01:10;13.40;1.00
10873;DHT22;34586;53.616;10.032;2023-05-07T10:03:36;13.60;99.90
10873;DHT22;34586;53.616;10.032;2023-05-07T10:06:04;13.50;1.00
10873;DHT22;34586;53.616;10.032;2023-05-07T10:08:30;13.60;99.90
10873;DHT22;34586;53.616;10.032;2023-05-07T10:10:56;13.40;99.90
10873;DHT22;34586;53.616;10.032;2023-05-07T10:13:22;13.30;1.00
10873;DHT22;34586;53.616;10.032;2023-05-07T10:15:48;13.40;1.00
10873;DHT22;34586;53.616;10.032;2023-05-07T10:18:15;13.40;1.00
10873;DHT22;34586;53.616;10.032;2023-05-07T10:20:42;13.40;1.00
10873;DHT22;34586;53.616;10.032;2023-05-07T10:23:13;13.50;1.00
10873;DHT22;34586;53.616;10.032;2023-05-07T10:25:40;13.50;76.90
10873;DHT22;34586;53.616;10.032;2023-05-07T10:28:08;13.60;1.00
10873;DHT22;34586;53.616;10.032;2023-05-07T10:31:07;13.60;1.00
10873;DHT22;34586;53.616;10.032;2023-05-07T10:33:36;13.50;99.90
10873;DHT22;34586;53.616;10.032;2023-05-07T10:36:03;13.60;1.00
10873;DHT22;34586;53.616;10.032;2023-05-07T10:38:30;13.50;92.60
10873;DHT22;34586;53.616;10.032;2023-05-07T10:40:56;13.50;99.90
10873;DHT22;34586;53.616;10.032;2023-05-07T10:43:23;13.50;77.10
10873;DHT22;34586;53.616;10.032;2023-05-07T10:46:17;13.50;38.30
10873;DHT22;34586;53.616;10.032;2023-05-07T10:51:30;13.40;99.90
10873;DHT22;34586;53.616;10.032;2023-05-07T10:56:38;13.50;1.00
10873;DHT22;34586;53.616;10.032;2023-05-07T10:59:35;13.40;99.90
10873;DHT22;34586;53.616;10.032;2023-05-07T11:02:06;13.30;1.00
10873;DHT22;34586;53.616;10.032;2023-05-07T11:04:33;13.30;99.90
10873;DHT22;34586;53.616;10.032;2023-05-07T11:12:16;13.60;1.00
10873;DHT22;34586;53.616;10.032;2023-05-07T11:14:45;13.80;1.00
10873;DHT22;34586;53.616;10.032;2023-05-07T11:17:11;13.90;1.00
10873;DHT22;34586;53.616;10.032;2023-05-07T11:19:56;14.00;1.00
10873;DHT22;34586;53.616;10.032;2023-05-07T11:24:59;14.20;1.00
10873;DHT22;34586;53.616;10.032;2023-05-07T11:27:27;14.50;89.60
10873;DHT22;34586;53.616;10.032;2023-05-07T11:29:53;14.60;99.90
10873;DHT22;34586;53.616;10.032;2023-05-07T11:32:28;14.80;99.90
10873;DHT22;34586;53.616;10.032;2023-05-07T11:34:55;14.80;99.90
10873;DHT22;34586;53.616;10.032;2023-05-07T11:37:21;14.70;1.00
10873;DHT22;34586;53.616;10.032;2023-05-07T11:39:48;14.70;99.90
10873;DHT22;34586;53.616;10.032;2023-05-07T11:42:33;14.90;1.00
10873;DHT22;34586;53.616;10.032;2023-05-07T11:45:03;15.00;1.00
10873;DHT22;34586;53.616;10.032;2023-05-07T11:47:32;15.00;99.90
10873;DHT22;34586;53.616;10.032;2023-05-07T11:50:06;15.10;99.90
10873;DHT22;34586;53.616;10.032;2023-05-07T11:52:34;15.30;1.00
10873;DHT22;34586;53.616;10.032;2023-05-07T11:55:02;15.30;99.90
10873;DHT22;34586;53.616;10.032;2023-05-07T11:57:29;15.40;1.00
10873;DHT22;34586;53.616;10.032;2023-05-07T11:59:56;15.60;1.00
10873;DHT22;34586;53.616;10.032;2023-05-07T12:02:23;15.70;1.00
10873;DHT22;34586;53.616;10.032;2023-05-07T12:04:54;15.90;99.90
10873;DHT22;34586;53.616;10.032;2023-05-07T12:07:21;15.60;99.90
10873;DHT22;34586;53.616;10.032;2023-05-07T12:09:47;15.60;1.00
10873;DHT22;34586;53.616;10.032;2023-05-07T12:12:16;15.40;99.90
10873;DHT22;34586;53.616;10.032;2023-05-07T12:14:44;15.60;1.00
10873;DHT22;34586;53.616;10.032;2023-05-07T12:17:11;15.70;1.00
10873;DHT22;34586;53.616;10.032;2023-05-07T12:19:38;15.80;89.30
10873;DHT22;34586;53.616;10.032;2023-05-07T12:22:05;16.00;1.00
10873;DHT22;34586;53.616;10.032;2023-05-07T12:27:10;15.90;1.00
10873;DHT22;34586;53.616;10.032;2023-05-07T12:29:35;16.10;1.00
10873;DHT22;34586;53.616;10.032;2023-05-07T12:32:06;16.40;13.40
10873;DHT22;34586;53.616;10.032;2023-05-07T12:34:32;16.60;99.90
10873;DHT22;34586;53.616;10.032;2023-05-07T12:37:02;16.70;99.90
10873;DHT22;34586;53.616;10.032;2023-05-07T12:39:29;17.10;1.00
10873;DHT22;34586;53.616;10.032;2023-05-07T12:41:56;17.50;1.00
10873;DHT22;34586;53.616;10.032;2023-05-07T12:44:24;17.80;99.90
10873;DHT22;34586;53.616;10.032;2023-05-07T12:46:50;17.90;1.00
10873;DHT22;34586;53.616;10.032;2023-05-07T12:49:16;17.90;1.00
10873;DHT22;34586;53.616;10.032;2023-05-07T12:51:46;18.10;99.90
10873;DHT22;34586;53.616;10.032;2023-05-07T12:54:13;18.00;99.90
10873;DHT22;34586;53.616;10.032;2023-05-07T12:56:39;18.00;99.90
10873;DHT22;34586;53.616;10.032;2023-05-07T12:59:05;18.40;99.90
10873;DHT22;34586;53.616;10.032;2023-05-07T13:01:34;18.60;99.90
10873;DHT22;34586;53.616;10.032;2023-05-07T13:04:05;18.60;1.00
10873;DHT22;34586;53.616;10.032;2023-05-07T13:06:33;18.60;1.00
10873;DHT22;34586;53.616;10.032;2023-05-07T13:09:01;18.70;1.00
10873;DHT22;34586;53.616;10.032;2023-05-07T13:11:27;18.70;99.90
10873;DHT22;34586;53.616;10.032;2023-05-07T13:13:53;18.40;1.00
10873;DHT22;34586;53.616;10.032;2023-05-07T13:16:18;18.20;1.00
10873;DHT22;34586;53.616;10.032;2023-05-07T13:18:44;18.30;1.00
10873;DHT22;34586;53.616;10.032;2023-05-07T13:21:11;18.50;1.00
10873;DHT22;34586;53.616;10.032;2023-05-07T13:23:38;18.70;99.90
10873;DHT22;34586;53.616;10.032;2023-05-07T13:26:04;19.20;99.90
10873;DHT22;34586;53.616;10.032;2023-05-07T13:28:29;19.30;99.90
10873;DHT22;34586;53.616;10.032;2023-05-07T13:30:55;19.30;1.00
10873;DHT22;34586;53.616;10.032;2023-05-07T13:33:21;19.50;1.00
10873;DHT22;34586;53.616;10.032;2023-05-07T13:35:46;19.70;99.90
10873;DHT22;34586;53.616;10.032;2023-05-07T13:38:12;19.70;99.90
10873;DHT22;34586;53.616;10.032;2023-05-07T13:40:38;19.70;99.90
10873;DHT22;34586;53.616;10.032;2023-05-07T13:43:05;19.70;99.90
10873;DHT22;34586;53.616;10.032;2023-05-07T13:45:31;20.10;99.90
10873;DHT22;34586;53.616;10.032;2023-05-07T13:47:57;19.80;99.90
10873;DHT22;34586;53.616;10.032;2023-05-07T13:50:22;19.60;1.00
10873;DHT22;34586;53.616;10.032;2023-05-07T13:52:48;20.00;1.00
10873;DHT22;34586;53.616;10.032;2023-05-07T13:55:21;20.40;1.00
10873;DHT22;34586;53.616;10.032;2023-05-07T13:57:47;20.80;1.00
10873;DHT22;34586;53.616;10.032;2023-05-07T14:00:13;21.10;1.00
10873;DHT22;34586;53.616;10.032;2023-05-07T14:02:40;21.00;1.00
10873;DHT22;34586;53.616;10.032;2023-05-07T14:05:06;21.00;99.90
10873;DHT22;34586;53.616;10.032;2023-05-07T14:07:32;20.90;99.90
10873;DHT22;34586;53.616;10.032;2023-05-07T14:09:57;21.00;99.90
10873;DHT22;34586;53.616;10.032;2023-05-07T14:12:24;20.40;1.00
10873;DHT22;34586;53.616;10.032;2023-05-07T14:14:49;20.00;97.40
10873;DHT22;34586;53.616;10.032;2023-05-07T14:17:18;20.00;1.00
10873;DHT22;34586;53.616;10.032;2023-05-07T14:19:44;20.00;1.00
10873;DHT22;34586;53.616;10.032;2023-05-07T14:22:10;20.00;1.00
10873;DHT22;34586;53.616;10.032;2023-05-07T14:24:36;20.00;99.90
10873;DHT22;34586;53.616;10.032;2023-05-07T14:27:01;20.10;99.90
10873;DHT22;34586;53.616;10.032;2023-05-07T14:29:27;20.40;1.00
10873;DHT22;34586;53.616;10.032;2023-05-07T14:31:53;20.40;10.60
10873;DHT22;34586;53.616;10.032;2023-05-07T14:34:18;20.50;1.00
10873;DHT22;34586;53.616;10.032;2023-05-07T14:36:45;20.10;1.00
10873;DHT22;34586;53.616;10.032;2023-05-07T14:39:11;19.70;99.90
10873;DHT22;34586;53.616;10.032;2023-05-07T14:41:37;19.40;99.90
10873;DHT22;34586;53.616;10.032;2023-05-07T14:44:02;19.20;99.90
10873;DHT22;34586;53.616;10.032;2023-05-07T14:46:29;19.20;1.00
10873;DHT22;34586;53.616;10.032;2023-05-07T14:48:56;19.10;1.00
10873;DHT22;34586;53.616;10.032;2023-05-07T14:51:22;19.00;1.00
10873;DHT22;34586;53.616;10.032;2023-05-07T14:53:51;19.20;1.00
10873;DHT22;34586;53.616;10.032;2023-05-07T14:56:17;19.10;99.90
10873;DHT22;34586;53.616;10.032;2023-05-07T14:58:43;19.20;99.90
10873;DHT22;34586;53.616;10.032;2023-05-07T15:01:09;19.40;99.90
10873;DHT22;34586;53.616;10.032;2023-05-07T15:03:34;19.30;1.00
10873;DHT22;34586;53.616;10.032;2023-05-07T15:06:01;19.20;1.00
10873;DHT22;34586;53.616;10.032;2023-05-07T15:08:26;19.10;1.00
10873;DHT22;34586;53.616;10.032;2023-05-07T15:10:53;19.10;1.00
10873;DHT22;34586;53.616;10.032;2023-05-07T15:13:21;19.10;1.00
10873;DHT22;34586;53.616;10.032;2023-05-07T15:15:48;19.20;1.00
10873;DHT22;34586;53.616;10.032;2023-05-07T15:18:16;19.30;1.00
10873;DHT22;34586;53.616;10.032;2023-05-07T15:20:42;19.40;99.90
10873;DHT22;34586;53.616;10.032;2023-05-07T15:23:08;19.20;99.90
10873;DHT22;34586;53.616;10.032;2023-05-07T15:25:40;19.10;99.90
10873;DHT22;34586;53.616;10.032;2023-05-07T15:28:06;19.10;99.90
10873;DHT22;34586;53.616;10.032;2023-05-07T15:30:32;19.10;1.00
10873;DHT22;34586;53.616;10.032;2023-05-07T15:33:01;19.10;99.90
10873;DHT22;34586;53.616;10.032;2023-05-07T15:35:28;19.00;1.00
10873;DHT22;34586;53.616;10.032;2023-05-07T15:37:55;18.80;1.00
10873;DHT22;34586;53.616;10.032;2023-05-07T15:40:20;18.90;13.40
10873;DHT22;34586;53.616;10.032;2023-05-07T15:42:46;18.90;99.90